aviador You're here:

KOFF Decoded Metar

OMAHA in NE, USA
Report Time2017-05-24 16:56:00
UTC Time2017-05-24 17:53:07
Flight Rules vfr VFR
Wind360° at 12 Gusting to 17 kt
W.Decomp.*RWY 30: 6.9 kt HW 9.8 kt RCW
Visibility9999 m
Phenomena:N/A
Clouds:Scattered 032 Hf
Expected CloudBase > 3,200 ft AGL from Temp-Dew spread
CeilingNone
Temp16°C (ISA +3)
Dew Point08°C (59% RH)
AAT11.2°C
QNH1007 hPa
Density Alt1,762 ft
Elevation1,047 ft
Report Wrong Elevation
Raw Report
KOFF 241656Z AUTO 36012G17KT 10SM SCT032 16/08 A2974 RMK AO2
SLP075 T01570084 $=

Extra information for KOFF:More info

Metar Taf Metar & Taf Last 4 Metars F.Rules Stats Wind Profile Meteogram Temp Stats Airport Information Weather charts Add Link Nearby VenuesMetar ALERT Operation Metar Decoded Social comments

AIRNAV info for KOFF